sensor_id;sensor_type;location;lat;lon;timestamp;temperature;humidity
20512;DHT22;10414;52.074;5.126;2022-11-15T00:01:19;8.30;99.90
20512;DHT22;10414;52.074;5.126;2022-11-15T00:03:46;8.40;99.90
20512;DHT22;10414;52.074;5.126;2022-11-15T00:06:17;8.40;99.90
20512;DHT22;10414;52.074;5.126;2022-11-15T00:08:44;8.20;99.90
20512;DHT22;10414;52.074;5.126;2022-11-15T00:11:12;8.20;99.90
20512;DHT22;10414;52.074;5.126;2022-11-15T00:13:40;8.30;99.90
20512;DHT22;10414;52.074;5.126;2022-11-15T00:16:09;8.30;99.90
20512;DHT22;10414;52.074;5.126;2022-11-15T00:18:37;8.40;99.90
20512;DHT22;10414;52.074;5.126;2022-11-15T00:21:05;8.30;99.90
20512;DHT22;10414;52.074;5.126;2022-11-15T00:23:33;8.30;99.90
20512;DHT22;10414;52.074;5.126;2022-11-15T00:26:00;8.40;99.90
20512;DHT22;10414;52.074;5.126;2022-11-15T00:28:27;8.50;99.90
20512;DHT22;10414;52.074;5.126;2022-11-15T00:31:00;8.60;99.90
20512;DHT22;10414;52.074;5.126;2022-11-15T00:33:27;8.50;99.90
20512;DHT22;10414;52.074;5.126;2022-11-15T00:35:59;8.30;99.90
20512;DHT22;10414;52.074;5.126;2022-11-15T00:38:30;8.20;99.90
20512;DHT22;10414;52.074;5.126;2022-11-15T00:40:57;8.30;99.90
20512;DHT22;10414;52.074;5.126;2022-11-15T00:43:24;8.40;99.90
20512;DHT22;10414;52.074;5.126;2022-11-15T00:45:51;8.50;99.90
20512;DHT22;10414;52.074;5.126;2022-11-15T00:48:20;8.40;99.90
20512;DHT22;10414;52.074;5.126;2022-11-15T00:50:47;8.40;99.90
20512;DHT22;10414;52.074;5.126;2022-11-15T00:53:14;8.40;99.90
20512;DHT22;10414;52.074;5.126;2022-11-15T00:55:41;8.50;99.90
20512;DHT22;10414;52.074;5.126;2022-11-15T00:58:08;8.60;99.90
20512;DHT22;10414;52.074;5.126;2022-11-15T01:00:35;8.70;99.90
20512;DHT22;10414;52.074;5.126;2022-11-15T01:03:02;8.60;99.90
20512;DHT22;10414;52.074;5.126;2022-11-15T01:05:30;8.40;99.90
20512;DHT22;10414;52.074;5.126;2022-11-15T01:07:58;8.40;99.90
20512;DHT22;10414;52.074;5.126;2022-11-15T01:10:26;8.50;99.90
20512;DHT22;10414;52.074;5.126;2022-11-15T01:12:54;8.40;99.90
20512;DHT22;10414;52.074;5.126;2022-11-15T01:15:21;8.60;99.90
20512;DHT22;10414;52.074;5.126;2022-11-15T01:17:48;8.70;99.90
20512;DHT22;10414;52.074;5.126;2022-11-15T01:20:15;8.80;99.90
20512;DHT22;10414;52.074;5.126;2022-11-15T01:22:44;8.70;99.90
20512;DHT22;10414;52.074;5.126;2022-11-15T01:25:11;8.60;99.90
20512;DHT22;10414;52.074;5.126;2022-11-15T01:27:38;8.70;99.90
20512;DHT22;10414;52.074;5.126;2022-11-15T01:30:06;8.70;99.90
20512;DHT22;10414;52.074;5.126;2022-11-15T01:32:33;8.90;99.90
20512;DHT22;10414;52.074;5.126;2022-11-15T01:35:00;8.70;99.90
20512;DHT22;10414;52.074;5.126;2022-11-15T01:37:27;8.70;99.90
20512;DHT22;10414;52.074;5.126;2022-11-15T01:39:56;8.60;99.90
20512;DHT22;10414;52.074;5.126;2022-11-15T01:42:23;8.70;99.90
20512;DHT22;10414;52.074;5.126;2022-11-15T01:44:50;8.60;99.90
20512;DHT22;10414;52.074;5.126;2022-11-15T01:47:20;8.60;99.90
20512;DHT22;10414;52.074;5.126;2022-11-15T01:49:55;8.70;99.90
20512;DHT22;10414;52.074;5.126;2022-11-15T01:52:25;8.70;99.90
20512;DHT22;10414;52.074;5.126;2022-11-15T01:54:58;8.80;99.90
20512;DHT22;10414;52.074;5.126;2022-11-15T01:57:26;8.90;99.90
20512;DHT22;10414;52.074;5.126;2022-11-15T01:59:53;9.00;99.90
20512;DHT22;10414;52.074;5.126;2022-11-15T02:02:20;9.10;99.90
20512;DHT22;10414;52.074;5.126;2022-11-15T02:04:47;9.20;99.90
20512;DHT22;10414;52.074;5.126;2022-11-15T02:07:17;9.10;99.90
20512;DHT22;10414;52.074;5.126;2022-11-15T02:09:45;9.10;99.90
20512;DHT22;10414;52.074;5.126;2022-11-15T02:12:15;9.20;99.90
20512;DHT22;10414;52.074;5.126;2022-11-15T02:14:43;9.30;99.90
20512;DHT22;10414;52.074;5.126;2022-11-15T02:20:34;9.40;99.90
20512;DHT22;10414;52.074;5.126;2022-11-15T02:26:41;9.60;99.90
20512;DHT22;10414;52.074;5.126;2022-11-15T02:29:16;9.60;99.90
20512;DHT22;10414;52.074;5.126;2022-11-15T02:31:49;9.50;99.90
20512;DHT22;10414;52.074;5.126;2022-11-15T02:34:26;9.60;99.90
20512;DHT22;10414;52.074;5.126;2022-11-15T02:37:00;9.60;99.90
20512;DHT22;10414;52.074;5.126;2022-11-15T02:39:35;9.60;99.90
20512;DHT22;10414;52.074;5.126;2022-11-15T02:42:06;9.70;99.90
20512;DHT22;10414;52.074;5.126;2022-11-15T02:44:56;9.70;99.90
20512;DHT22;10414;52.074;5.126;2022-11-15T02:47:24;9.90;99.90
20512;DHT22;10414;52.074;5.126;2022-11-15T02:49:54;10.00;99.90
20512;DHT22;10414;52.074;5.126;2022-11-15T02:52:24;10.20;99.90
20512;DHT22;10414;52.074;5.126;2022-11-15T02:54:55;10.30;99.90
20512;DHT22;10414;52.074;5.126;2022-11-15T02:57:42;10.20;99.90
20512;DHT22;10414;52.074;5.126;2022-11-15T03:00:12;10.30;99.90
20512;DHT22;10414;52.074;5.126;2022-11-15T03:03:11;10.40;99.90
20512;DHT22;10414;52.074;5.126;2022-11-15T03:05:44;10.40;99.90
20512;DHT22;10414;52.074;5.126;2022-11-15T03:08:18;10.50;99.90
20512;DHT22;10414;52.074;5.126;2022-11-15T03:10:52;10.50;99.90
20512;DHT22;10414;52.074;5.126;2022-11-15T03:13:27;10.40;99.90
20512;DHT22;10414;52.074;5.126;2022-11-15T03:16:01;10.40;99.90
20512;DHT22;10414;52.074;5.126;2022-11-15T03:18:33;10.40;99.90
20512;DHT22;10414;52.074;5.126;2022-11-15T03:21:03;10.40;99.90
20512;DHT22;10414;52.074;5.126;2022-11-15T03:23:31;10.40;99.90
20512;DHT22;10414;52.074;5.126;2022-11-15T03:25:59;10.50;99.90
20512;DHT22;10414;52.074;5.126;2022-11-15T03:28:31;10.50;99.90
20512;DHT22;10414;52.074;5.126;2022-11-15T03:31:01;10.40;99.90
20512;DHT22;10414;52.074;5.126;2022-11-15T03:33:50;10.50;99.90
20512;DHT22;10414;52.074;5.126;2022-11-15T03:36:19;10.40;99.90
20512;DHT22;10414;52.074;5.126;2022-11-15T03:38:48;10.50;99.90
20512;DHT22;10414;52.074;5.126;2022-11-15T03:41:19;10.50;99.90
20512;DHT22;10414;52.074;5.126;2022-11-15T03:43:52;10.50;99.90
20512;DHT22;10414;52.074;5.126;2022-11-15T03:46:25;10.50;99.90
20512;DHT22;10414;52.074;5.126;2022-11-15T03:49:00;10.60;99.90
20512;DHT22;10414;52.074;5.126;2022-11-15T03:51:31;10.70;99.90
20512;DHT22;10414;52.074;5.126;2022-11-15T03:53:58;10.70;99.90
20512;DHT22;10414;52.074;5.126;2022-11-15T03:56:25;10.80;99.90
20512;DHT22;10414;52.074;5.126;2022-11-15T03:58:52;10.80;99.90
20512;DHT22;10414;52.074;5.126;2022-11-15T04:01:19;10.70;99.90
20512;DHT22;10414;52.074;5.126;2022-11-15T04:03:46;10.80;99.90
20512;DHT22;10414;52.074;5.126;2022-11-15T04:06:15;11.00;99.90
20512;DHT22;10414;52.074;5.126;2022-11-15T04:08:42;10.90;99.90
20512;DHT22;10414;52.074;5.126;2022-11-15T04:11:09;10.90;99.90
20512;DHT22;10414;52.074;5.126;2022-11-15T04:13:35;10.80;99.90
20512;DHT22;10414;52.074;5.126;2022-11-15T04:16:03;10.90;99.90
20512;DHT22;10414;52.074;5.126;2022-11-15T04:18:30;11.00;99.90
20512;DHT22;10414;52.074;5.126;2022-11-15T04:20:57;11.00;99.90
20512;DHT22;10414;52.074;5.126;2022-11-15T04:23:39;10.90;99.90
20512;DHT22;10414;52.074;5.126;2022-11-15T04:26:26;11.00;99.90
20512;DHT22;10414;52.074;5.126;2022-11-15T04:28:53;10.90;99.90
20512;DHT22;10414;52.074;5.126;2022-11-15T04:31:37;11.00;99.90
20512;DHT22;10414;52.074;5.126;2022-11-15T04:34:04;11.10;99.90
20512;DHT22;10414;52.074;5.126;2022-11-15T04:36:31;11.20;99.90
20512;DHT22;10414;52.074;5.126;2022-11-15T04:39:17;11.30;99.90
20512;DHT22;10414;52.074;5.126;2022-11-15T04:41:44;11.50;99.90
20512;DHT22;10414;52.074;5.126;2022-11-15T04:44:11;11.60;99.90
20512;DHT22;10414;52.074;5.126;2022-11-15T04:46:38;11.60;99.90
20512;DHT22;10414;52.074;5.126;2022-11-15T04:49:05;11.50;99.90
20512;DHT22;10414;52.074;5.126;2022-11-15T04:51:32;11.50;99.90
20512;DHT22;10414;52.074;5.126;2022-11-15T04:53:59;11.20;99.90
20512;DHT22;10414;52.074;5.126;2022-11-15T04:56:28;11.50;99.90
20512;DHT22;10414;52.074;5.126;2022-11-15T04:58:55;11.40;99.90
20512;DHT22;10414;52.074;5.126;2022-11-15T05:01:22;11.50;99.90
20512;DHT22;10414;52.074;5.126;2022-11-15T05:03:49;11.20;99.90
20512;DHT22;10414;52.074;5.126;2022-11-15T05:06:39;11.20;99.90
20512;DHT22;10414;52.074;5.126;2022-11-15T05:09:06;11.10;99.90
20512;DHT22;10414;52.074;5.126;2022-11-15T05:11:34;11.20;99.90
20512;DHT22;10414;52.074;5.126;2022-11-15T05:14:01;11.20;99.90
20512;DHT22;10414;52.074;5.126;2022-11-15T05:16:28;11.40;99.90
20512;DHT22;10414;52.074;5.126;2022-11-15T05:18:58;11.30;99.90
20512;DHT22;10414;52.074;5.126;2022-11-15T05:21:26;11.40;99.90
20512;DHT22;10414;52.074;5.126;2022-11-15T05:23:53;11.50;99.90
20512;DHT22;10414;52.074;5.126;2022-11-15T05:26:20;11.50;99.90
20512;DHT22;10414;52.074;5.126;2022-11-15T05:28:52;11.60;99.90
20512;DHT22;10414;52.074;5.126;2022-11-15T05:31:20;11.70;99.90
20512;DHT22;10414;52.074;5.126;2022-11-15T05:33:48;11.70;99.90
20512;DHT22;10414;52.074;5.126;2022-11-15T05:36:18;11.60;99.90
20512;DHT22;10414;52.074;5.126;2022-11-15T05:38:47;11.70;99.90
20512;DHT22;10414;52.074;5.126;2022-11-15T05:41:15;11.70;99.90
20512;DHT22;10414;52.074;5.126;2022-11-15T05:43:43;11.80;99.90
20512;DHT22;10414;52.074;5.126;2022-11-15T05:46:13;11.70;99.90
20512;DHT22;10414;52.074;5.126;2022-11-15T05:48:42;11.80;99.90
20512;DHT22;10414;52.074;5.126;2022-11-15T05:51:12;11.90;99.90
20512;DHT22;10414;52.074;5.126;2022-11-15T05:53:41;11.80;99.90
20512;DHT22;10414;52.074;5.126;2022-11-15T05:56:09;11.80;99.90
20512;DHT22;10414;52.074;5.126;2022-11-15T05:58:36;11.70;99.90
20512;DHT22;10414;52.074;5.126;2022-11-15T06:01:04;11.60;99.90
20512;DHT22;10414;52.074;5.126;2022-11-15T06:03:33;11.60;99.90
20512;DHT22;10414;52.074;5.126;2022-11-15T06:06:06;11.70;99.90
20512;DHT22;10414;52.074;5.126;2022-11-15T06:08:34;11.60;99.90
20512;DHT22;10414;52.074;5.126;2022-11-15T06:11:05;11.60;99.90
20512;DHT22;10414;52.074;5.126;2022-11-15T06:13:35;11.60;99.90
20512;DHT22;10414;52.074;5.126;2022-11-15T06:16:03;11.70;99.90
20512;DHT22;10414;52.074;5.126;2022-11-15T06:18:37;11.70;99.90
20512;DHT22;10414;52.074;5.126;2022-11-15T06:21:16;11.70;99.90
20512;DHT22;10414;52.074;5.126;2022-11-15T06:23:43;11.60;99.90
20512;DHT22;10414;52.074;5.126;2022-11-15T06:26:16;11.50;99.90
20512;DHT22;10414;52.074;5.126;2022-11-15T06:28:45;11.60;99.90
20512;DHT22;10414;52.074;5.126;2022-11-15T06:31:14;11.70;99.90
20512;DHT22;10414;52.074;5.126;2022-11-15T06:33:48;11.70;99.90
20512;DHT22;10414;52.074;5.126;2022-11-15T06:36:16;11.80;99.90
20512;DHT22;10414;52.074;5.126;2022-11-15T06:38:45;11.70;99.90
20512;DHT22;10414;52.074;5.126;2022-11-15T06:41:15;11.80;99.90
20512;DHT22;10414;52.074;5.126;2022-11-15T06:43:47;11.70;99.90
20512;DHT22;10414;52.074;5.126;2022-11-15T06:46:23;11.70;99.90
20512;DHT22;10414;52.074;5.126;2022-11-15T06:48:54;11.70;99.90
20512;DHT22;10414;52.074;5.126;2022-11-15T06:51:23;11.70;99.90
20512;DHT22;10414;52.074;5.126;2022-11-15T06:53:55;11.70;99.90
20512;DHT22;10414;52.074;5.126;2022-11-15T06:56:23;11.80;99.90
20512;DHT22;10414;52.074;5.126;2022-11-15T06:58:50;11.90;99.90
20512;DHT22;10414;52.074;5.126;2022-11-15T07:01:20;11.80;99.90
20512;DHT22;10414;52.074;5.126;2022-11-15T07:03:47;11.60;99.90
20512;DHT22;10414;52.074;5.126;2022-11-15T07:06:23;11.70;99.90
20512;DHT22;10414;52.074;5.126;2022-11-15T07:09:04;11.80;99.90
20512;DHT22;10414;52.074;5.126;2022-11-15T07:11:44;11.80;99.90
20512;DHT22;10414;52.074;5.126;2022-11-15T07:14:21;11.80;99.90
20512;DHT22;10414;52.074;5.126;2022-11-15T07:17:05;11.60;99.90
20512;DHT22;10414;52.074;5.126;2022-11-15T07:20:13;11.60;99.90
20512;DHT22;10414;52.074;5.126;2022-11-15T07:22:45;11.50;99.90
20512;DHT22;10414;52.074;5.126;2022-11-15T07:25:15;11.50;99.90
20512;DHT22;10414;52.074;5.126;2022-11-15T07:27:54;11.70;99.90
20512;DHT22;10414;52.074;5.126;2022-11-15T07:30:26;11.70;99.90
20512;DHT22;10414;52.074;5.126;2022-11-15T07:32:55;11.70;99.90
20512;DHT22;10414;52.074;5.126;2022-11-15T07:42:25;11.80;99.90
20512;DHT22;10414;52.074;5.126;2022-11-15T07:45:10;11.90;99.90
20512;DHT22;10414;52.074;5.126;2022-11-15T07:47:55;12.00;99.90
20512;DHT22;10414;52.074;5.126;2022-11-15T07:50:25;11.90;99.90
20512;DHT22;10414;52.074;5.126;2022-11-15T07:53:07;11.90;99.90
20512;DHT22;10414;52.074;5.126;2022-11-15T07:55:35;11.90;99.90
20512;DHT22;10414;52.074;5.126;2022-11-15T07:58:04;12.10;99.90
20512;DHT22;10414;52.074;5.126;2022-11-15T08:00:32;12.00;99.90
20512;DHT22;10414;52.074;5.126;2022-11-15T08:03:04;12.00;99.90
20512;DHT22;10414;52.074;5.126;2022-11-15T08:05:31;12.10;99.90
20512;DHT22;10414;52.074;5.126;2022-11-15T08:07:59;11.90;99.90
20512;DHT22;10414;52.074;5.126;2022-11-15T08:10:27;12.00;99.90
20512;DHT22;10414;52.074;5.126;2022-11-15T08:13:00;12.00;99.90
20512;DHT22;10414;52.074;5.126;2022-11-15T08:15:28;12.00;99.90
20512;DHT22;10414;52.074;5.126;2022-11-15T08:18:03;12.20;99.90
20512;DHT22;10414;52.074;5.126;2022-11-15T08:20:31;12.00;99.90
20512;DHT22;10414;52.074;5.126;2022-11-15T08:22:59;12.20;99.90
20512;DHT22;10414;52.074;5.126;2022-11-15T08:25:28;12.30;99.90
20512;DHT22;10414;52.074;5.126;2022-11-15T08:28:01;12.40;99.90
20512;DHT22;10414;52.074;5.126;2022-11-15T08:30:29;12.30;99.90
20512;DHT22;10414;52.074;5.126;2022-11-15T08:32:58;12.20;99.90
20512;DHT22;10414;52.074;5.126;2022-11-15T08:35:25;12.20;99.90
20512;DHT22;10414;52.074;5.126;2022-11-15T08:37:53;12.20;99.90
20512;DHT22;10414;52.074;5.126;2022-11-15T08:40:20;12.40;99.90
20512;DHT22;10414;52.074;5.126;2022-11-15T08:42:47;12.50;99.90
20512;DHT22;10414;52.074;5.126;2022-11-15T08:45:16;12.80;99.90
20512;DHT22;10414;52.074;5.126;2022-11-15T08:47:43;12.90;99.90
20512;DHT22;10414;52.074;5.126;2022-11-15T08:50:09;13.10;99.90
20512;DHT22;10414;52.074;5.126;2022-11-15T08:52:37;13.80;99.90
20512;DHT22;10414;52.074;5.126;2022-11-15T08:55:05;15.70;99.90
20512;DHT22;10414;52.074;5.126;2022-11-15T08:57:32;16.40;99.90
20512;DHT22;10414;52.074;5.126;2022-11-15T08:59:59;16.20;99.90
20512;DHT22;10414;52.074;5.126;2022-11-15T09:02:28;15.20;99.90
20512;DHT22;10414;52.074;5.126;2022-11-15T09:04:54;14.60;99.90
20512;DHT22;10414;52.074;5.126;2022-11-15T09:07:21;14.20;99.90
20512;DHT22;10414;52.074;5.126;2022-11-15T09:09:49;15.10;99.90
20512;DHT22;10414;52.074;5.126;2022-11-15T09:12:16;16.40;99.90
20512;DHT22;10414;52.074;5.126;2022-11-15T09:14:43;17.30;99.90
20512;DHT22;10414;52.074;5.126;2022-11-15T09:17:10;18.00;99.90
20512;DHT22;10414;52.074;5.126;2022-11-15T09:19:38;18.50;99.90
20512;DHT22;10414;52.074;5.126;2022-11-15T09:22:06;18.70;99.90
20512;DHT22;10414;52.074;5.126;2022-11-15T09:24:33;17.90;99.90
20512;DHT22;10414;52.074;5.126;2022-11-15T09:27:00;16.90;99.90
20512;DHT22;10414;52.074;5.126;2022-11-15T09:29:27;16.80;99.90
20512;DHT22;10414;52.074;5.126;2022-11-15T09:31:54;16.50;99.90
20512;DHT22;10414;52.074;5.126;2022-11-15T09:34:20;16.60;99.90
20512;DHT22;10414;52.074;5.126;2022-11-15T09:36:49;17.60;99.90
20512;DHT22;10414;52.074;5.126;2022-11-15T09:39:15;16.80;99.90
20512;DHT22;10414;52.074;5.126;2022-11-15T09:44:47;17.40;99.90
20512;DHT22;10414;52.074;5.126;2022-11-15T09:50:34;16.20;99.90
20512;DHT22;10414;52.074;5.126;2022-11-15T09:53:04;15.70;99.90
20512;DHT22;10414;52.074;5.126;2022-11-15T09:55:38;15.70;99.90
20512;DHT22;10414;52.074;5.126;2022-11-15T09:58:16;16.40;99.90
20512;DHT22;10414;52.074;5.126;2022-11-15T10:00:47;16.10;99.90
20512;DHT22;10414;52.074;5.126;2022-11-15T10:03:23;15.90;99.90
20512;DHT22;10414;52.074;5.126;2022-11-15T10:05:55;16.40;99.90
20512;DHT22;10414;52.074;5.126;2022-11-15T10:08:35;15.30;99.90
20512;DHT22;10414;52.074;5.126;2022-11-15T10:11:07;15.10;99.90
20512;DHT22;10414;52.074;5.126;2022-11-15T10:13:35;15.00;99.90
20512;DHT22;10414;52.074;5.126;2022-11-15T10:16:13;14.70;99.90
20512;DHT22;10414;52.074;5.126;2022-11-15T10:18:52;15.20;99.90
20512;DHT22;10414;52.074;5.126;2022-11-15T10:21:21;16.10;99.90
20512;DHT22;10414;52.074;5.126;2022-11-15T10:23:53;15.70;99.90
20512;DHT22;10414;52.074;5.126;2022-11-15T10:26:21;15.70;99.90
20512;DHT22;10414;52.074;5.126;2022-11-15T10:28:50;15.90;99.90
20512;DHT22;10414;52.074;5.126;2022-11-15T10:31:22;15.80;99.90
20512;DHT22;10414;52.074;5.126;2022-11-15T10:33:49;16.80;99.90
20512;DHT22;10414;52.074;5.126;2022-11-15T10:36:22;16.30;99.90
20512;DHT22;10414;52.074;5.126;2022-11-15T10:38:57;16.10;99.90
20512;DHT22;10414;52.074;5.126;2022-11-15T10:41:33;16.30;99.90
20512;DHT22;10414;52.074;5.126;2022-11-15T10:44:31;16.50;99.90
20512;DHT22;10414;52.074;5.126;2022-11-15T10:50:00;16.60;99.90
20512;DHT22;10414;52.074;5.126;2022-11-15T10:52:29;16.90;99.90
20512;DHT22;10414;52.074;5.126;2022-11-15T10:55:01;17.00;99.90
20512;DHT22;10414;52.074;5.126;2022-11-15T10:57:32;16.40;99.90
20512;DHT22;10414;52.074;5.126;2022-11-15T11:00:02;16.40;99.90
20512;DHT22;10414;52.074;5.126;2022-11-15T11:02:33;16.60;99.90
20512;DHT22;10414;52.074;5.126;2022-11-15T11:05:02;16.30;99.90
20512;DHT22;10414;52.074;5.126;2022-11-15T11:07:32;16.70;99.90
20512;DHT22;10414;52.074;5.126;2022-11-15T11:10:17;16.60;99.90
20512;DHT22;10414;52.074;5.126;2022-11-15T11:12:44;16.30;99.90
20512;DHT22;10414;52.074;5.126;2022-11-15T11:15:13;16.20;99.90
20512;DHT22;10414;52.074;5.126;2022-11-15T11:17:54;15.90;99.90
20512;DHT22;10414;52.074;5.126;2022-11-15T11:20:28;15.60;99.90
20512;DHT22;10414;52.074;5.126;2022-11-15T11:23:03;15.40;99.90
20512;DHT22;10414;52.074;5.126;2022-11-15T11:25:34;15.40;99.90
20512;DHT22;10414;52.074;5.126;2022-11-15T11:28:23;14.70;99.90
20512;DHT22;10414;52.074;5.126;2022-11-15T11:31:04;14.80;99.90
20512;DHT22;10414;52.074;5.126;2022-11-15T11:33:38;14.10;99.90
20512;DHT22;10414;52.074;5.126;2022-11-15T11:36:17;14.00;99.90
20512;DHT22;10414;52.074;5.126;2022-11-15T11:38:55;14.10;99.90
20512;DHT22;10414;52.074;5.126;2022-11-15T11:41:58;14.10;99.90
20512;DHT22;10414;52.074;5.126;2022-11-15T11:44:33;14.70;99.90
20512;DHT22;10414;52.074;5.126;2022-11-15T11:47:01;14.80;99.90
20512;DHT22;10414;52.074;5.126;2022-11-15T11:49:34;14.60;99.90
20512;DHT22;10414;52.074;5.126;2022-11-15T11:52:10;14.50;99.90
20512;DHT22;10414;52.074;5.126;2022-11-15T11:54:46;14.50;99.90
20512;DHT22;10414;52.074;5.126;2022-11-15T11:57:25;14.30;99.90
20512;DHT22;10414;52.074;5.126;2022-11-15T12:00:00;14.20;99.90
20512;DHT22;10414;52.074;5.126;2022-11-15T12:02:31;14.10;99.90
20512;DHT22;10414;52.074;5.126;2022-11-15T12:05:08;13.90;99.90
20512;DHT22;10414;52.074;5.126;2022-11-15T12:07:38;14.00;99.90
20512;DHT22;10414;52.074;5.126;2022-11-15T12:10:23;14.10;99.90
20512;DHT22;10414;52.074;5.126;2022-11-15T12:13:02;14.00;99.90
20512;DHT22;10414;52.074;5.126;2022-11-15T12:15:50;14.10;99.90
20512;DHT22;10414;52.074;5.126;2022-11-15T12:18:26;14.10;99.90
20512;DHT22;10414;52.074;5.126;2022-11-15T12:21:05;14.00;99.90
20512;DHT22;10414;52.074;5.126;2022-11-15T12:23:41;14.00;99.90
20512;DHT22;10414;52.074;5.126;2022-11-15T12:26:16;14.00;99.90
20512;DHT22;10414;52.074;5.126;2022-11-15T12:28:55;14.20;99.90
20512;DHT22;10414;52.074;5.126;2022-11-15T12:31:36;14.20;99.90
20512;DHT22;10414;52.074;5.126;2022-11-15T12:34:15;14.30;99.90
20512;DHT22;10414;52.074;5.126;2022-11-15T12:36:48;14.30;99.90
20512;DHT22;10414;52.074;5.126;2022-11-15T12:39:19;14.20;99.90
20512;DHT22;10414;52.074;5.126;2022-11-15T12:45:00;13.90;99.90
20512;DHT22;10414;52.074;5.126;2022-11-15T12:47:27;14.00;99.90
20512;DHT22;10414;52.074;5.126;2022-11-15T12:49:55;13.90;99.90
20512;DHT22;10414;52.074;5.126;2022-11-15T12:52:22;14.00;99.90
20512;DHT22;10414;52.074;5.126;2022-11-15T12:55:28;13.90;99.90
20512;DHT22;10414;52.074;5.126;2022-11-15T13:01:02;14.10;99.90
20512;DHT22;10414;52.074;5.126;2022-11-15T13:03:29;14.10;99.90
20512;DHT22;10414;52.074;5.126;2022-11-15T13:09:01;14.20;99.90
20512;DHT22;10414;52.074;5.126;2022-11-15T13:11:49;13.90;99.90
20512;DHT22;10414;52.074;5.126;2022-11-15T13:14:38;13.80;99.90
20512;DHT22;10414;52.074;5.126;2022-11-15T13:17:22;13.80;99.90
20512;DHT22;10414;52.074;5.126;2022-11-15T13:19:53;13.70;99.90
20512;DHT22;10414;52.074;5.126;2022-11-15T13:22:22;13.70;99.90
20512;DHT22;10414;52.074;5.126;2022-11-15T13:25:15;13.70;99.90
20512;DHT22;10414;52.074;5.126;2022-11-15T13:27:45;13.60;99.90
20512;DHT22;10414;52.074;5.126;2022-11-15T13:30:26;13.60;99.90
20512;DHT22;10414;52.074;5.126;2022-11-15T13:32:55;13.40;99.90
20512;DHT22;10414;52.074;5.126;2022-11-15T13:35:24;13.40;99.90
20512;DHT22;10414;52.074;5.126;2022-11-15T13:37:53;13.40;99.90
20512;DHT22;10414;52.074;5.126;2022-11-15T13:40:23;13.40;99.90
20512;DHT22;10414;52.074;5.126;2022-11-15T13:42:51;13.40;99.90
20512;DHT22;10414;52.074;5.126;2022-11-15T13:45:19;13.40;99.90
20512;DHT22;10414;52.074;5.126;2022-11-15T13:47:53;13.20;99.90
20512;DHT22;10414;52.074;5.126;2022-11-15T13:50:24;13.10;99.90
20512;DHT22;10414;52.074;5.126;2022-11-15T13:52:56;13.00;99.90
20512;DHT22;10414;52.074;5.126;2022-11-15T13:55:25;13.10;99.90
20512;DHT22;10414;52.074;5.126;2022-11-15T13:57:54;13.20;99.90
20512;DHT22;10414;52.074;5.126;2022-11-15T14:00:34;13.10;99.90
20512;DHT22;10414;52.074;5.126;2022-11-15T14:03:16;13.00;99.90
20512;DHT22;10414;52.074;5.126;2022-11-15T14:06:04;13.00;99.90
20512;DHT22;10414;52.074;5.126;2022-11-15T14:08:33;12.80;99.90
20512;DHT22;10414;52.074;5.126;2022-11-15T14:13:39;12.90;99.90
20512;DHT22;10414;52.074;5.126;2022-11-15T14:16:17;12.90;99.90
20512;DHT22;10414;52.074;5.126;2022-11-15T14:18:48;12.90;99.90
20512;DHT22;10414;52.074;5.126;2022-11-15T14:21:15;12.90;99.90
20512;DHT22;10414;52.074;5.126;2022-11-15T14:23:43;12.80;99.90
20512;DHT22;10414;52.074;5.126;2022-11-15T14:26:27;12.80;99.90
20512;DHT22;10414;52.074;5.126;2022-11-15T14:28:54;12.70;99.90
20512;DHT22;10414;52.074;5.126;2022-11-15T14:31:22;12.80;99.90
20512;DHT22;10414;52.074;5.126;2022-11-15T14:33:50;12.70;99.90
20512;DHT22;10414;52.074;5.126;2022-11-15T14:36:19;12.80;99.90
20512;DHT22;10414;52.074;5.126;2022-11-15T14:38:46;12.70;99.90
20512;DHT22;10414;52.074;5.126;2022-11-15T14:41:19;12.80;99.90
20512;DHT22;10414;52.074;5.126;2022-11-15T14:43:46;12.70;99.90
20512;DHT22;10414;52.074;5.126;2022-11-15T14:46:13;12.70;99.90
20512;DHT22;10414;52.074;5.126;2022-11-15T14:48:40;12.70;99.90
20512;DHT22;10414;52.074;5.126;2022-11-15T14:51:16;12.60;99.90
20512;DHT22;10414;52.074;5.126;2022-11-15T14:53:44;12.60;99.90
20512;DHT22;10414;52.074;5.126;2022-11-15T14:56:12;12.60;99.90
20512;DHT22;10414;52.074;5.126;2022-11-15T14:58:39;12.60;99.90
20512;DHT22;10414;52.074;5.126;2022-11-15T15:01:12;12.60;99.90
20512;DHT22;10414;52.074;5.126;2022-11-15T15:03:39;12.60;99.90
20512;DHT22;10414;52.074;5.126;2022-11-15T15:06:06;12.60;99.90
20512;DHT22;10414;52.074;5.126;2022-11-15T15:08:36;12.60;99.90
20512;DHT22;10414;52.074;5.126;2022-11-15T15:11:08;12.60;99.90
20512;DHT22;10414;52.074;5.126;2022-11-15T15:13:37;12.60;99.90
20512;DHT22;10414;52.074;5.126;2022-11-15T15:16:04;12.70;99.90
20512;DHT22;10414;52.074;5.126;2022-11-15T15:18:31;12.60;99.90
20512;DHT22;10414;52.074;5.126;2022-11-15T15:20:59;12.60;99.90
20512;DHT22;10414;52.074;5.126;2022-11-15T15:23:32;12.50;99.90
20512;DHT22;10414;52.074;5.126;2022-11-15T15:26:02;12.60;99.90
20512;DHT22;10414;52.074;5.126;2022-11-15T15:28:30;12.50;99.90
20512;DHT22;10414;52.074;5.126;2022-11-15T15:30:57;12.40;99.90
20512;DHT22;10414;52.074;5.126;2022-11-15T15:33:24;12.50;99.90
20512;DHT22;10414;52.074;5.126;2022-11-15T15:35:50;12.50;99.90
20512;DHT22;10414;52.074;5.126;2022-11-15T15:38:18;12.50;99.90
20512;DHT22;10414;52.074;5.126;2022-11-15T15:40:45;12.50;99.90
20512;DHT22;10414;52.074;5.126;2022-11-15T15:43:13;12.50;99.90
20512;DHT22;10414;52.074;5.126;2022-11-15T15:45:41;12.50;99.90
20512;DHT22;10414;52.074;5.126;2022-11-15T15:48:11;12.50;99.90
20512;DHT22;10414;52.074;5.126;2022-11-15T15:50:38;12.60;99.90
20512;DHT22;10414;52.074;5.126;2022-11-15T15:53:06;12.50;99.90
20512;DHT22;10414;52.074;5.126;2022-11-15T15:55:33;12.60;99.90
20512;DHT22;10414;52.074;5.126;2022-11-15T15:58:01;12.70;99.90
20512;DHT22;10414;52.074;5.126;2022-11-15T16:00:29;12.60;99.90
20512;DHT22;10414;52.074;5.126;2022-11-15T16:02:58;12.70;99.90
20512;DHT22;10414;52.074;5.126;2022-11-15T16:05:25;12.70;99.90
20512;DHT22;10414;52.074;5.126;2022-11-15T16:07:52;12.70;99.90
20512;DHT22;10414;52.074;5.126;2022-11-15T16:10:22;12.70;99.90
20512;DHT22;10414;52.074;5.126;2022-11-15T16:12:50;12.70;99.90
20512;DHT22;10414;52.074;5.126;2022-11-15T16:15:18;12.70;99.90
20512;DHT22;10414;52.074;5.126;2022-11-15T16:17:48;12.70;99.90
20512;DHT22;10414;52.074;5.126;2022-11-15T16:20:24;12.70;99.90
20512;DHT22;10414;52.074;5.126;2022-11-15T16:22:53;12.80;99.90
20512;DHT22;10414;52.074;5.126;2022-11-15T16:25:20;12.80;99.90
20512;DHT22;10414;52.074;5.126;2022-11-15T16:27:47;12.90;99.90
20512;DHT22;10414;52.074;5.126;2022-11-15T16:30:15;12.80;99.90
20512;DHT22;10414;52.074;5.126;2022-11-15T16:32:43;12.90;99.90